Lavras do Sul, Brazil
Current Conditions -  °F | °C
As of 4:00 PM on Tuesday 27 Jan 2015 (Local Time) from SBSM Reporting Station
Rain Showers Rain Showers  
Wind Chill: 77°   Ceiling: 7000
Heat Index: 78°   Visibility: 6mi
Dew Point: 72°   Wind: 9mph
Humidity: 83%   Direction: 270°W
Pressure: 29.8"   Gusts: NA
Location:  30.81°S, 53.89°W
Report Text: SBSM 271800Z 27008KT 9999 VCSH SCT030 FEW040TCU BKN070 BKN100 25/22 Q1009
Loading
Personal Weather Stations






























Interactive Weather Map New forecast layout! Learn more

10-Day Weather Forecast

Advertisements
Track Severe Weather on mobile